createdAt,value
2022-09-21T00:01:05.984Z,11.13
2022-09-21T00:03:32.687Z,11.13
2022-09-21T00:06:07.147Z,11.40
2022-09-21T00:08:33.890Z,10.32
2022-09-21T00:11:00.970Z,11.40
2022-09-21T00:13:28.410Z,11.48
2022-09-21T00:15:58.150Z,10.70
2022-09-21T00:18:25.620Z,11.38
2022-09-21T00:20:52.926Z,10.90
2022-09-21T00:23:20.482Z,11.02
2022-09-21T00:25:47.318Z,10.70
2022-09-21T00:28:14.000Z,11.55
2022-09-21T00:30:40.718Z,12.07
2022-09-21T00:33:07.412Z,10.48
2022-09-21T00:35:35.283Z,11.07
2022-09-21T00:38:03.272Z,11.30
2022-09-21T00:40:30.374Z,10.85
2022-09-21T00:43:17.226Z,11.48
2022-09-21T00:45:47.331Z,11.02
2022-09-21T00:48:15.496Z,11.05
2022-09-21T00:50:49.310Z,10.40
2022-09-21T00:53:16.528Z,10.68
2022-09-21T00:55:51.587Z,9.38
2022-09-21T00:58:25.792Z,9.55
2022-09-21T01:00:52.676Z,10.23
2022-09-21T01:03:19.438Z,9.57
2022-09-21T01:05:46.370Z,9.07
2022-09-21T01:08:15.847Z,8.82
2022-09-21T01:10:54.202Z,8.32
2022-09-21T01:13:56.943Z,9.80
2022-09-21T01:16:32.707Z,9.38
2022-09-21T01:19:27.484Z,9.77
2022-09-21T01:22:15.616Z,10.40
2022-09-21T01:25:05.822Z,11.30
2022-09-21T01:27:46.129Z,11.15
2022-09-21T01:30:19.120Z,11.02
2022-09-21T01:33:00.215Z,10.38
2022-09-21T01:35:32.435Z,9.88
2022-09-21T01:38:15.398Z,10.38
2022-09-21T01:40:46.296Z,10.05
2022-09-21T01:43:18.738Z,10.25
2022-09-21T01:45:50.496Z,10.48
2022-09-21T01:48:21.966Z,10.77
2022-09-21T01:50:55.593Z,11.00
2022-09-21T01:53:31.115Z,9.82
2022-09-21T01:56:10.651Z,9.98
2022-09-21T01:58:48.419Z,10.00
2022-09-21T02:01:18.516Z,10.27
2022-09-21T02:03:57.744Z,10.40
2022-09-21T02:06:27.974Z,10.80
2022-09-21T02:08:55.366Z,10.68
2022-09-21T02:11:22.553Z,11.02
2022-09-21T02:13:52.664Z,11.25
2022-09-21T02:16:34.046Z,11.40
2022-09-21T02:19:30.274Z,12.25
2022-09-21T02:22:36.238Z,11.07
2022-09-21T02:25:11.404Z,11.63
2022-09-21T02:27:50.296Z,12.45
2022-09-21T02:30:23.545Z,14.20
2022-09-21T02:33:12.112Z,13.23
2022-09-21T02:35:47.200Z,15.00
2022-09-21T02:38:20.281Z,15.52
2022-09-21T02:40:51.160Z,15.85
2022-09-21T02:43:44.422Z,15.63
2022-09-21T02:46:20.598Z,14.93
2022-09-21T02:48:55.576Z,14.57
2022-09-21T02:51:29.402Z,13.88
2022-09-21T02:53:58.847Z,14.30
2022-09-21T02:56:26.828Z,14.80
2022-09-21T02:58:57.266Z,15.60
2022-09-21T03:01:26.840Z,14.68
2022-09-21T03:03:54.116Z,15.30
2022-09-21T03:06:20.784Z,11.40
2022-09-21T03:08:47.439Z,11.77
2022-09-21T03:11:20.521Z,12.90
2022-09-21T03:13:47.220Z,10.63
2022-09-21T03:16:14.289Z,10.23
2022-09-21T03:18:42.596Z,11.40
2022-09-21T03:21:09.580Z,10.93
2022-09-21T03:23:39.606Z,10.30
2022-09-21T03:26:06.652Z,10.40
2022-09-21T03:28:33.279Z,10.13
2022-09-21T03:31:00.316Z,9.95
2022-09-21T03:33:27.539Z,8.93
2022-09-21T03:35:54.311Z,10.20
2022-09-21T03:38:21.992Z,9.95
2022-09-21T03:40:50.212Z,9.98
2022-09-21T03:43:18.092Z,9.48
2022-09-21T03:45:45.732Z,9.45
2022-09-21T03:48:13.018Z,10.77
2022-09-21T03:50:40.140Z,10.45
2022-09-21T03:53:08.420Z,10.48
2022-09-21T03:55:35.391Z,11.68
2022-09-21T03:58:03.078Z,13.43
2022-09-21T04:00:30.268Z,13.75
2022-09-21T04:02:57.132Z,14.45
2022-09-21T04:05:24.063Z,15.50
2022-09-21T04:07:50.687Z,16.65
2022-09-21T04:10:20.192Z,16.92
2022-09-21T04:12:47.603Z,17.17
2022-09-21T04:15:17.969Z,16.08
2022-09-21T04:17:44.640Z,14.88
2022-09-21T04:20:12.397Z,14.68
2022-09-21T04:22:43.299Z,14.40
2022-09-21T04:25:11.379Z,13.10
2022-09-21T04:27:38.081Z,12.07
2022-09-21T04:30:06.032Z,11.27
2022-09-21T04:32:32.704Z,13.13
2022-09-21T04:34:59.346Z,14.23
2022-09-21T04:37:26.066Z,14.45
2022-09-21T04:39:52.757Z,14.45
2022-09-21T04:42:19.483Z,14.82
2022-09-21T04:44:46.101Z,15.43
2022-09-21T04:47:13.131Z,15.60
2022-09-21T04:49:40.171Z,18.20
2022-09-21T04:52:07.403Z,15.63
2022-09-21T04:54:34.044Z,15.07
2022-09-21T04:57:02.049Z,12.82
2022-09-21T04:59:28.701Z,13.07
2022-09-21T05:01:55.383Z,12.85
2022-09-21T05:04:22.023Z,13.13
2022-09-21T05:06:48.676Z,14.20
2022-09-21T05:09:34.201Z,14.05
2022-09-21T05:12:00.991Z,15.00
2022-09-21T05:14:27.665Z,16.45
2022-09-21T05:16:54.413Z,16.92
2022-09-21T05:19:21.097Z,17.13
2022-09-21T05:21:48.532Z,16.17
2022-09-21T05:24:15.917Z,17.00
2022-09-21T05:26:42.626Z,18.42
2022-09-21T05:29:09.598Z,16.60
2022-09-21T05:31:39.538Z,15.50
2022-09-21T05:34:36.143Z,14.90
2022-09-21T05:37:29.899Z,18.65
2022-09-21T05:39:56.769Z,16.95
2022-09-21T05:42:23.631Z,16.98
2022-09-21T05:44:50.782Z,16.60
2022-09-21T05:47:38.047Z,16.95
2022-09-21T05:50:35.500Z,15.57
2022-09-21T05:53:13.443Z,15.95
2022-09-21T05:55:44.150Z,14.70
2022-09-21T05:58:27.789Z,15.32
2022-09-21T06:01:15.472Z,15.27
2022-09-21T06:03:43.372Z,17.65
2022-09-21T06:06:10.248Z,14.88
2022-09-21T06:08:37.084Z,16.38
2022-09-21T06:11:03.919Z,15.48
2022-09-21T06:13:31.536Z,16.42
2022-09-21T06:16:01.381Z,16.00
2022-09-21T06:18:28.082Z,14.52
2022-09-21T06:20:54.811Z,16.75
2022-09-21T06:23:22.182Z,15.68
2022-09-21T06:25:57.601Z,15.05
2022-09-21T06:28:26.097Z,18.40
2022-09-21T06:30:54.338Z,19.05
2022-09-21T06:33:23.698Z,18.48
2022-09-21T06:35:54.621Z,18.38
2022-09-21T06:38:21.759Z,18.08
2022-09-21T06:40:48.505Z,18.90
2022-09-21T06:43:15.235Z,18.92
2022-09-21T06:45:42.017Z,16.63
2022-09-21T06:48:08.951Z,15.98
2022-09-21T06:50:36.435Z,15.80
2022-09-21T06:53:04.063Z,15.18
2022-09-21T06:55:31.741Z,15.32
2022-09-21T06:58:03.101Z,13.98
2022-09-21T07:00:31.335Z,11.93
2022-09-21T07:02:58.742Z,12.95
2022-09-21T07:05:25.729Z,12.23
2022-09-21T07:07:57.606Z,12.93
2022-09-21T07:10:25.846Z,12.57
2022-09-21T07:12:52.555Z,11.65
2022-09-21T07:15:19.590Z,12.80
2022-09-21T07:17:51.671Z,12.73
2022-09-21T07:20:19.037Z,12.38
2022-09-21T07:22:45.701Z,12.00
2022-09-21T07:25:12.451Z,13.25
2022-09-21T07:27:39.291Z,12.82
2022-09-21T07:30:06.981Z,14.25
2022-09-21T07:32:34.200Z,11.50
2022-09-21T07:35:01.104Z,11.50
2022-09-21T07:37:28.315Z,10.65
2022-09-21T07:39:55.064Z,10.20
2022-09-21T07:42:22.947Z,10.65
2022-09-21T07:44:50.914Z,11.02
2022-09-21T07:47:18.101Z,10.93
2022-09-21T07:49:47.199Z,11.05
2022-09-21T07:52:15.592Z,9.63
2022-09-21T07:54:42.298Z,9.80
2022-09-21T07:57:28.091Z,9.23
2022-09-21T07:59:58.359Z,8.63
2022-09-21T08:02:25.478Z,8.93
2022-09-21T08:04:52.287Z,9.38
2022-09-21T08:07:19.468Z,9.35
2022-09-21T08:09:49.813Z,9.45
2022-09-21T08:12:20.895Z,9.15
2022-09-21T08:14:48.239Z,8.48
2022-09-21T08:17:14.993Z,17.88
2022-09-21T08:19:42.000Z,8.93
2022-09-21T08:22:08.734Z,9.25
2022-09-21T08:24:35.572Z,9.40
2022-09-21T08:27:02.314Z,9.63
2022-09-21T08:29:29.885Z,9.63
2022-09-21T08:31:56.589Z,10.38
2022-09-21T08:34:24.198Z,11.88
2022-09-21T08:36:55.244Z,11.02
2022-09-21T08:39:22.677Z,11.90
2022-09-21T08:42:07.847Z,10.18
2022-09-21T08:44:51.550Z,11.40
2022-09-21T08:47:34.647Z,11.00
2022-09-21T08:50:04.207Z,11.45
2022-09-21T08:52:33.093Z,11.50
2022-09-21T08:55:18.388Z,10.43
2022-09-21T08:57:45.252Z,11.45
2022-09-21T09:00:19.330Z,11.05
2022-09-21T09:02:55.000Z,11.48
2022-09-21T09:05:42.810Z,12.65
2022-09-21T09:08:19.524Z,11.00
2022-09-21T09:11:08.082Z,10.70
2022-09-21T09:13:46.853Z,10.43
2022-09-21T09:16:32.407Z,9.65
2022-09-21T09:19:03.288Z,9.23
2022-09-21T09:21:39.042Z,10.27
2022-09-21T09:24:16.115Z,10.57
2022-09-21T09:27:03.939Z,10.68
2022-09-21T09:29:49.405Z,9.02
2022-09-21T09:32:18.505Z,9.27
2022-09-21T09:35:02.809Z,7.27
2022-09-21T09:37:37.751Z,7.55
2022-09-21T09:40:07.837Z,7.15
2022-09-21T09:42:50.496Z,6.25
2022-09-21T09:45:29.280Z,6.18
2022-09-21T09:48:07.953Z,6.28
2022-09-21T09:50:38.985Z,5.82
2022-09-21T09:53:13.664Z,8.35
2022-09-21T09:55:43.957Z,8.30
2022-09-21T09:58:36.893Z,8.40
2022-09-21T10:01:04.139Z,11.70
2022-09-21T10:03:31.214Z,9.45
2022-09-21T10:05:58.286Z,8.25
2022-09-21T10:08:27.955Z,6.63
2022-09-21T10:10:54.942Z,6.75
2022-09-21T10:13:30.669Z,5.35
2022-09-21T10:16:04.722Z,3.78
2022-09-21T10:18:53.236Z,4.18
2022-09-21T10:21:27.135Z,3.50
2022-09-21T10:24:24.387Z,3.90
2022-09-21T10:26:56.211Z,3.58
2022-09-21T10:29:22.888Z,4.25
2022-09-21T10:32:04.143Z,3.90
2022-09-21T10:34:35.557Z,3.33
2022-09-21T10:37:23.685Z,3.55
2022-09-21T10:39:50.356Z,3.22
2022-09-21T10:42:19.738Z,3.92
2022-09-21T10:44:49.178Z,3.83
2022-09-21T10:47:39.149Z,4.38
2022-09-21T10:50:23.506Z,3.90
2022-09-21T10:52:56.859Z,4.00
2022-09-21T10:55:25.419Z,3.58
2022-09-21T10:57:53.243Z,3.90
2022-09-21T11:00:26.019Z,4.20
2022-09-21T11:02:55.070Z,3.40
2022-09-21T11:05:27.143Z,3.72
2022-09-21T11:07:58.319Z,4.18
2022-09-21T11:10:34.702Z,3.35
2022-09-21T11:13:20.111Z,3.65
2022-09-21T11:16:21.191Z,4.10
2022-09-21T11:19:08.953Z,4.38
2022-09-21T11:21:39.627Z,4.35
2022-09-21T11:24:28.628Z,4.18
2022-09-21T11:27:18.304Z,3.40
2022-09-21T11:29:53.053Z,4.32
2022-09-21T11:32:57.400Z,3.97
2022-09-21T11:35:42.280Z,4.03
2022-09-21T11:38:13.479Z,4.60
2022-09-21T11:40:43.097Z,3.90
2022-09-21T11:46:01.576Z,3.10
2022-09-21T11:49:05.839Z,4.10
2022-09-21T11:52:01.128Z,4.00
2022-09-21T11:54:48.216Z,4.38
2022-09-21T11:57:55.471Z,4.95
2022-09-21T12:00:25.144Z,5.30
2022-09-21T12:03:15.560Z,5.10
2022-09-21T12:05:54.360Z,6.00
2022-09-21T12:08:49.211Z,4.90
2022-09-21T12:11:21.784Z,4.45
2022-09-21T12:13:58.259Z,4.50
2022-09-21T12:16:47.223Z,5.68
2022-09-21T12:19:24.665Z,4.75
2022-09-21T12:22:03.969Z,5.03
2022-09-21T12:24:40.200Z,4.80
2022-09-21T12:27:45.083Z,5.00
2022-09-21T12:30:24.828Z,4.70
2022-09-21T12:33:10.283Z,4.68
2022-09-21T12:38:23.646Z,3.90
2022-09-21T12:40:51.822Z,5.13
2022-09-21T12:43:55.280Z,5.35
2022-09-21T12:46:29.619Z,4.80
2022-09-21T12:48:56.486Z,5.00
2022-09-21T12:51:37.152Z,4.47
2022-09-21T12:54:20.865Z,5.00
2022-09-21T12:57:23.436Z,4.38
2022-09-21T13:00:15.147Z,5.28
2022-09-21T13:02:49.739Z,4.78
2022-09-21T13:05:27.152Z,4.38
2022-09-21T13:07:59.422Z,3.78
2022-09-21T13:10:29.132Z,3.45
2022-09-21T13:13:03.312Z,3.78
2022-09-21T13:15:32.809Z,3.55
2022-09-21T13:18:04.362Z,3.60
2022-09-21T13:20:40.214Z,4.78
2022-09-21T13:23:18.346Z,4.10
2022-09-21T13:25:50.543Z,4.85
2022-09-21T13:28:24.022Z,5.22
2022-09-21T13:31:37.016Z,3.88
2022-09-21T13:34:09.066Z,3.83
2022-09-21T13:36:36.724Z,4.00
2022-09-21T13:39:09.934Z,4.45
2022-09-21T13:42:01.820Z,3.67
2022-09-21T13:44:44.450Z,4.03
2022-09-21T13:47:12.561Z,4.15
2022-09-21T13:49:51.169Z,3.80
2022-09-21T13:52:17.849Z,4.38
2022-09-21T13:54:44.461Z,4.28
2022-09-21T13:57:29.243Z,4.13
2022-09-21T14:00:20.074Z,3.90
2022-09-21T14:02:49.775Z,3.15
2022-09-21T14:08:16.109Z,4.88
2022-09-21T14:11:08.878Z,4.20
2022-09-21T14:13:44.002Z,4.35
2022-09-21T14:16:37.422Z,4.45
2022-09-21T14:19:26.923Z,4.47
2022-09-21T14:22:05.537Z,5.10
2022-09-21T14:24:45.017Z,5.32
2022-09-21T14:27:45.335Z,4.75
2022-09-21T14:30:25.229Z,5.22
2022-09-21T14:33:01.032Z,5.63
2022-09-21T14:35:34.166Z,4.72
2022-09-21T14:38:11.108Z,5.28
2022-09-21T14:40:42.507Z,5.68
2022-09-21T14:43:15.743Z,5.57
2022-09-21T14:46:03.241Z,5.20
2022-09-21T14:48:30.595Z,5.18
2022-09-21T14:51:02.294Z,5.63
2022-09-21T14:53:47.079Z,4.13
2022-09-21T14:56:25.300Z,3.45
2022-09-21T14:59:21.301Z,3.10
2022-09-21T15:02:16.452Z,2.70
2022-09-21T15:05:12.428Z,2.72
2022-09-21T15:08:11.205Z,2.85
2022-09-21T15:10:57.979Z,2.92
2022-09-21T15:13:24.947Z,2.90
2022-09-21T15:16:22.173Z,2.60
2022-09-21T15:18:51.425Z,3.22
2022-09-21T15:21:29.379Z,3.15
2022-09-21T15:23:56.896Z,3.30
2022-09-21T15:26:30.677Z,3.63
2022-09-21T15:29:10.953Z,3.83
2022-09-21T15:31:42.190Z,4.35
2022-09-21T15:34:11.075Z,4.80
2022-09-21T15:36:40.509Z,4.15
2022-09-21T15:39:20.714Z,4.30
2022-09-21T15:41:49.997Z,4.53
2022-09-21T15:44:21.886Z,4.68
2022-09-21T15:46:51.768Z,5.07
2022-09-21T15:49:22.684Z,4.25
2022-09-21T15:51:58.728Z,4.68
2022-09-21T15:54:42.536Z,5.10
2022-09-21T15:57:36.122Z,4.72
2022-09-21T16:00:23.441Z,4.55
2022-09-21T16:02:59.013Z,5.25
2022-09-21T16:05:25.815Z,5.43
2022-09-21T16:08:17.849Z,5.50
2022-09-21T16:10:45.310Z,5.03
2022-09-21T16:13:41.768Z,5.07
2022-09-21T16:16:10.114Z,6.25
2022-09-21T16:18:56.418Z,6.55
2022-09-21T16:21:33.012Z,6.50
2022-09-21T16:24:22.430Z,6.93
2022-09-21T16:27:03.236Z,9.40
2022-09-21T16:29:43.130Z,10.13
2022-09-21T16:34:42.297Z,16.88
2022-09-21T16:37:24.451Z,9.90
2022-09-21T16:39:56.138Z,14.48
2022-09-21T16:42:27.256Z,9.25
2022-09-21T16:44:55.074Z,14.00
2022-09-21T16:47:26.460Z,12.45
2022-09-21T16:50:00.542Z,14.70
2022-09-21T16:52:28.742Z,13.10
2022-09-21T16:54:56.696Z,23.17
2022-09-21T16:57:24.708Z,12.23
2022-09-21T16:59:54.514Z,37.47
2022-09-21T17:02:21.241Z,22.25
2022-09-21T17:04:50.732Z,49.95
2022-09-21T17:07:18.876Z,36.15
2022-09-21T17:09:48.320Z,160.95
2022-09-21T17:12:17.940Z,412.85
2022-09-21T17:14:46.975Z,356.92
2022-09-21T17:17:23.082Z,225.40
2022-09-21T17:19:53.082Z,111.35
2022-09-21T17:22:20.396Z,259.13
2022-09-21T17:24:51.810Z,396.25
2022-09-21T17:27:25.807Z,367.00
2022-09-21T17:29:54.081Z,354.45
2022-09-21T17:32:24.284Z,175.25
2022-09-21T17:35:01.840Z,286.55
2022-09-21T17:37:29.543Z,301.92
2022-09-21T17:39:56.288Z,282.35
2022-09-21T17:42:25.279Z,181.15
2022-09-21T17:45:02.378Z,69.30
2022-09-21T17:47:31.190Z,36.00
2022-09-21T17:50:13.271Z,105.22
2022-09-21T17:53:01.101Z,71.30
2022-09-21T17:55:29.728Z,41.15
2022-09-21T17:58:26.523Z,68.03
2022-09-21T18:01:04.823Z,24.33
2022-09-21T18:03:36.007Z,83.53
2022-09-21T18:06:03.072Z,64.00
2022-09-21T18:08:34.016Z,36.47
2022-09-21T18:11:12.782Z,36.08
2022-09-21T18:13:59.828Z,20.42
2022-09-21T18:16:55.419Z,36.58
2022-09-21T18:20:02.864Z,22.27
2022-09-21T18:22:42.156Z,26.67
2022-09-21T18:25:16.181Z,26.77
2022-09-21T18:27:48.246Z,26.50
2022-09-21T18:30:17.686Z,23.75
2022-09-21T18:33:08.383Z,23.52
2022-09-21T18:35:57.323Z,21.02
2022-09-21T18:38:26.974Z,19.95
2022-09-21T18:40:56.576Z,20.25
2022-09-21T18:43:42.303Z,17.80
2022-09-21T18:46:38.636Z,22.77
2022-09-21T18:49:47.040Z,22.85
2022-09-21T18:52:20.612Z,27.27
2022-09-21T18:54:48.285Z,40.25
2022-09-21T18:57:15.518Z,33.65
2022-09-21T18:59:42.562Z,47.05
2022-09-21T19:02:15.510Z,29.42
2022-09-21T19:04:43.669Z,24.67
2022-09-21T19:07:39.043Z,33.75
2022-09-21T19:10:25.614Z,26.35
2022-09-21T19:13:10.824Z,69.68
2022-09-21T19:16:10.299Z,42.65
2022-09-21T19:19:10.392Z,50.35
2022-09-21T19:22:18.153Z,109.00
2022-09-21T19:25:02.954Z,156.38
2022-09-21T19:27:29.703Z,60.38
2022-09-21T19:30:05.594Z,26.50
2022-09-21T19:32:45.772Z,22.08
2022-09-21T19:35:26.402Z,23.75
2022-09-21T19:37:55.537Z,48.13
2022-09-21T19:40:28.101Z,30.27
2022-09-21T19:43:08.650Z,21.67
2022-09-21T19:46:05.231Z,50.40
2022-09-21T19:48:43.490Z,38.45
2022-09-21T19:51:18.994Z,19.42
2022-09-21T19:54:11.100Z,14.35
2022-09-21T19:57:03.544Z,21.50
2022-09-21T19:59:46.473Z,21.15
2022-09-21T20:02:18.530Z,20.23
2022-09-21T20:05:23.383Z,19.83
2022-09-21T20:08:14.743Z,22.25
2022-09-21T20:10:54.713Z,19.85
2022-09-21T20:16:04.048Z,16.85
2022-09-21T20:19:04.021Z,21.38
